createdAt,value
2019-02-23T00:04:29.094Z,2.40
2019-02-23T00:09:32.483Z,2.30
2019-02-23T00:14:35.868Z,2.30
2019-02-23T00:19:39.252Z,2.20
2019-02-23T00:24:42.655Z,2.20
2019-02-23T00:29:46.052Z,2.10
2019-02-23T00:34:49.453Z,2.00
2019-02-23T00:39:52.839Z,1.90
2019-02-23T00:44:56.229Z,1.90
2019-02-23T00:49:59.626Z,1.80
2019-02-23T00:55:03.016Z,1.80
2019-02-23T01:00:09.217Z,1.70
2019-02-23T01:05:12.780Z,1.60
2019-02-23T01:10:16.161Z,1.60
2019-02-23T01:15:19.545Z,1.50
2019-02-23T01:20:22.991Z,1.50
2019-02-23T01:25:26.368Z,1.40
2019-02-23T01:30:29.772Z,1.40
2019-02-23T01:35:33.172Z,1.30
2019-02-23T01:40:36.563Z,1.20
2019-02-23T01:45:42.636Z,1.20
2019-02-23T01:50:45.039Z,1.10
2019-02-23T01:55:48.474Z,1.10
2019-02-23T02:00:51.892Z,1.00
2019-02-23T02:05:55.281Z,1.00
2019-02-23T02:10:58.662Z,0.90
2019-02-23T02:16:02.055Z,0.90
2019-02-23T02:21:05.443Z,0.90
2019-02-23T02:26:08.827Z,0.80
2019-02-23T02:31:12.202Z,0.70
2019-02-23T02:36:15.588Z,0.70
2019-02-23T02:41:18.976Z,0.60
2019-02-23T02:46:22.364Z,0.60
2019-02-23T02:51:25.743Z,0.50
2019-02-23T02:56:29.148Z,0.50
2019-02-23T03:01:32.540Z,0.50
2019-02-23T03:06:35.934Z,0.40
2019-02-23T03:11:39.328Z,0.40
2019-02-23T03:16:42.715Z,0.30
2019-02-23T03:21:46.100Z,0.20
2019-02-23T03:26:49.493Z,0.20
2019-02-23T03:31:52.871Z,0.20
2019-02-23T03:36:56.263Z,0.10
2019-02-23T03:41:59.819Z,0.10
2019-02-23T03:47:03.212Z,0.00
2019-02-23T03:52:06.595Z,0.00
2019-02-23T03:57:09.972Z,-0.10
2019-02-23T04:02:13.365Z,-0.10
2019-02-23T04:07:16.775Z,-0.20
2019-02-23T04:12:20.160Z,-0.20
2019-02-23T04:17:23.569Z,-0.20
2019-02-23T04:22:27.028Z,-0.30
2019-02-23T04:27:30.417Z,-0.40
2019-02-23T04:32:33.816Z,-0.40
2019-02-23T04:37:37.207Z,-0.50
2019-02-23T04:42:40.599Z,-0.50
2019-02-23T04:47:43.990Z,-0.50
2019-02-23T04:52:47.377Z,-0.60
2019-02-23T04:57:50.758Z,-0.60
2019-02-23T05:02:54.147Z,-0.70
2019-02-23T05:07:57.539Z,-0.70
2019-02-23T05:13:00.938Z,-0.80
2019-02-23T05:18:04.322Z,-0.80
2019-02-23T05:23:07.716Z,-0.80
2019-02-23T05:28:11.116Z,-0.90
2019-02-23T05:33:14.496Z,-0.90
2019-02-23T05:38:17.898Z,-0.90
2019-02-23T05:43:21.278Z,-1.00
2019-02-23T05:48:24.679Z,-1.00
2019-02-23T05:53:28.053Z,-1.10
2019-02-23T05:58:31.440Z,-1.10
2019-02-23T06:03:34.828Z,-1.20
2019-02-23T06:08:38.230Z,-1.20
2019-02-23T06:13:41.610Z,-1.20
2019-02-23T06:18:44.984Z,-1.30
2019-02-23T06:23:48.373Z,-1.30
2019-02-23T06:28:51.750Z,-1.30
2019-02-23T06:33:55.133Z,-1.40
2019-02-23T06:38:58.520Z,-1.40
2019-02-23T06:44:01.911Z,-1.40
2019-02-23T06:49:05.300Z,-1.50
2019-02-23T06:54:08.689Z,-1.50
2019-02-23T06:59:12.075Z,-1.50
2019-02-23T07:04:15.459Z,-1.50
2019-02-23T07:09:18.863Z,-1.40
2019-02-23T07:14:22.238Z,-1.40
2019-02-23T07:19:25.654Z,-1.40
2019-02-23T07:24:29.023Z,-1.30
2019-02-23T07:29:32.415Z,-1.30
2019-02-23T07:34:35.807Z,-1.20
2019-02-23T07:39:39.195Z,-1.10
2019-02-23T07:44:42.579Z,-1.00
2019-02-23T07:49:45.964Z,-0.90
2019-02-23T07:54:49.349Z,-0.70
2019-02-23T07:59:52.735Z,-0.60
2019-02-23T08:04:56.124Z,-0.50
2019-02-23T08:09:59.498Z,-0.40
2019-02-23T08:15:02.894Z,-0.20
2019-02-23T08:20:09.035Z,-0.10
2019-02-23T08:25:13.867Z,0.10
2019-02-23T08:30:17.693Z,0.30
2019-02-23T08:35:21.083Z,0.50
2019-02-23T08:40:24.464Z,0.70
2019-02-23T08:45:27.875Z,0.90
2019-02-23T08:50:31.259Z,1.20
2019-02-23T08:55:34.649Z,1.50
2019-02-23T09:00:38.023Z,1.70
2019-02-23T09:05:41.425Z,2.00
2019-02-23T09:10:44.823Z,2.20
2019-02-23T09:15:48.217Z,2.50
2019-02-23T09:20:51.988Z,2.80
2019-02-23T09:25:57.765Z,3.00
2019-02-23T09:31:00.561Z,3.30
2019-02-23T09:36:03.950Z,3.50
2019-02-23T09:41:07.330Z,3.70
2019-02-23T09:46:10.717Z,4.00
2019-02-23T09:51:14.110Z,4.20
2019-02-23T09:56:17.565Z,4.40
2019-02-23T10:01:20.931Z,4.70
2019-02-23T10:06:24.304Z,4.90
2019-02-23T10:11:27.678Z,5.10
2019-02-23T10:16:31.063Z,5.20
2019-02-23T10:21:34.528Z,5.50
2019-02-23T10:26:37.905Z,5.70
2019-02-23T10:31:41.419Z,5.90
2019-02-23T10:36:44.804Z,6.10
2019-02-23T10:41:48.191Z,6.20
2019-02-23T10:46:51.572Z,6.30
2019-02-23T10:51:54.960Z,6.40
2019-02-23T10:56:58.347Z,6.70
2019-02-23T11:02:01.744Z,6.80
2019-02-23T11:07:05.203Z,7.10
2019-02-23T11:12:08.647Z,7.30
2019-02-23T11:17:12.031Z,7.40
2019-02-23T11:22:15.413Z,7.50
2019-02-23T11:27:18.786Z,7.70
2019-02-23T11:32:22.176Z,7.90
2019-02-23T11:37:25.561Z,8.10
2019-02-23T11:42:28.947Z,8.20
2019-02-23T11:47:32.324Z,8.20
2019-02-23T11:52:35.707Z,8.40
2019-02-23T11:57:39.079Z,8.50
2019-02-23T12:02:52.006Z,8.50
2019-02-23T12:07:47.642Z,8.60
2019-02-23T12:12:51.015Z,8.60
2019-02-23T12:17:54.395Z,8.60
2019-02-23T12:22:57.803Z,8.70
2019-02-23T12:28:01.179Z,8.80
2019-02-23T12:33:04.555Z,8.80
2019-02-23T12:38:07.939Z,9.00
2019-02-23T12:43:11.321Z,9.10
2019-02-23T12:48:14.706Z,9.20
2019-02-23T12:53:19.044Z,9.10
2019-02-23T12:58:22.424Z,9.30
2019-02-23T13:03:25.807Z,9.30
2019-02-23T13:08:32.267Z,9.30
2019-02-23T13:13:38.731Z,9.30
2019-02-23T13:19:10.767Z,9.20
2019-02-23T13:24:36.855Z,9.30
2019-02-23T13:30:17.927Z,9.40
2019-02-23T13:35:40.809Z,9.40
2019-02-23T13:40:52.768Z,9.40
2019-02-23T13:46:01.651Z,9.40
2019-02-23T13:51:35.396Z,9.40
2019-02-23T13:56:44.633Z,9.30
2019-02-23T14:02:02.863Z,9.40
2019-02-23T14:07:11.764Z,9.50
2019-02-23T14:12:20.823Z,9.50
2019-02-23T14:17:27.284Z,9.50
2019-02-23T14:22:39.655Z,9.50
2019-02-23T14:28:06.896Z,9.50
2019-02-23T14:33:15.872Z,9.40
2019-02-23T14:38:40.227Z,9.40
2019-02-23T14:44:04.834Z,9.30
2019-02-23T14:49:17.067Z,9.30
2019-02-23T14:54:28.724Z,9.10
2019-02-23T14:59:40.972Z,9.10
2019-02-23T15:05:05.419Z,8.90
2019-02-23T15:10:17.827Z,8.80
2019-02-23T15:15:51.264Z,8.60
2019-02-23T15:21:00.267Z,8.50
2019-02-23T15:26:12.059Z,8.30
2019-02-23T15:31:39.724Z,8.20
2019-02-23T15:37:01.199Z,8.00
2019-02-23T15:42:19.285Z,7.90
2019-02-23T15:47:40.645Z,7.70
2019-02-23T15:52:44.121Z,7.60
2019-02-23T15:57:47.552Z,7.40
2019-02-23T16:02:50.932Z,7.20
2019-02-23T16:07:54.338Z,7.10
2019-02-23T16:12:57.691Z,6.90
2019-02-23T16:18:01.077Z,6.80
2019-02-23T16:23:04.456Z,6.60
2019-02-23T16:28:07.839Z,6.40
2019-02-23T16:33:11.248Z,6.30
2019-02-23T16:38:14.634Z,6.10
2019-02-23T16:43:18.019Z,6.00
2019-02-23T16:48:21.400Z,5.80
2019-02-23T16:53:24.786Z,5.70
2019-02-23T16:58:28.176Z,5.50
2019-02-23T17:03:31.556Z,5.30
2019-02-23T17:08:34.935Z,5.20
2019-02-23T17:13:38.310Z,5.10
2019-02-23T17:18:41.695Z,5.00
2019-02-23T17:23:45.167Z,4.80
2019-02-23T17:28:48.589Z,4.60
2019-02-23T17:33:51.954Z,4.50
2019-02-23T17:38:55.336Z,4.40
2019-02-23T17:43:58.715Z,4.30
2019-02-23T17:49:02.275Z,4.20
2019-02-23T17:54:05.684Z,4.00
2019-02-23T17:59:09.066Z,3.90
2019-02-23T18:04:12.463Z,3.80
2019-02-23T18:09:15.836Z,3.60
2019-02-23T18:14:19.227Z,3.50
2019-02-23T18:19:22.607Z,3.40
2019-02-23T18:24:25.993Z,3.30
2019-02-23T18:29:29.371Z,3.20
2019-02-23T18:34:32.758Z,3.10
2019-02-23T18:39:36.147Z,3.00
2019-02-23T18:44:39.524Z,2.90
2019-02-23T18:49:42.923Z,2.80
2019-02-23T18:54:46.315Z,2.70
2019-02-23T18:59:49.687Z,2.60
2019-02-23T19:04:53.071Z,2.50
2019-02-23T19:09:56.463Z,2.40
2019-02-23T19:14:59.851Z,2.30
2019-02-23T19:20:03.884Z,2.30
2019-02-23T19:25:09.203Z,2.20
2019-02-23T19:30:13.755Z,2.10
2019-02-23T19:35:17.140Z,2.00
2019-02-23T19:40:20.559Z,1.90
2019-02-23T19:45:23.938Z,1.90
2019-02-23T19:50:30.527Z,1.70
2019-02-23T19:55:33.912Z,1.70
2019-02-23T20:00:37.299Z,1.60
2019-02-23T20:05:40.684Z,1.50
2019-02-23T20:10:44.067Z,1.50
2019-02-23T20:15:47.439Z,1.40
2019-02-23T20:20:50.832Z,1.30
2019-02-23T20:25:54.216Z,1.30
2019-02-23T20:30:57.599Z,1.20
2019-02-23T20:36:00.988Z,1.10
2019-02-23T20:41:04.362Z,1.10
2019-02-23T20:46:07.742Z,1.00
2019-02-23T20:51:11.203Z,0.90
2019-02-23T20:56:14.586Z,0.80
2019-02-23T21:01:17.993Z,0.80
2019-02-23T21:06:22.197Z,0.70
2019-02-23T21:11:25.687Z,0.60
2019-02-23T21:16:29.054Z,0.60
2019-02-23T21:21:32.431Z,0.50
2019-02-23T21:26:35.844Z,0.40
2019-02-23T21:31:39.231Z,0.40
2019-02-23T21:36:42.627Z,0.30
2019-02-23T21:41:46.007Z,0.30
2019-02-23T21:46:49.400Z,0.20
2019-02-23T21:51:52.779Z,0.20
2019-02-23T21:56:56.654Z,0.10
2019-02-23T22:02:00.155Z,0.10
2019-02-23T22:07:03.548Z,0.00
2019-02-23T22:12:07.007Z,0.00
2019-02-23T22:17:10.395Z,-0.10
2019-02-23T22:22:13.812Z,-0.10
2019-02-23T22:27:17.190Z,-0.20
2019-02-23T22:32:20.596Z,-0.30
2019-02-23T22:37:23.971Z,-0.30
2019-02-23T22:42:27.368Z,-0.30
2019-02-23T22:47:30.780Z,-0.40
2019-02-23T22:52:34.170Z,-0.50
2019-02-23T22:57:40.571Z,-0.50
2019-02-23T23:02:42.762Z,-0.50
2019-02-23T23:07:46.155Z,-0.60
2019-02-23T23:12:49.531Z,-0.60
2019-02-23T23:17:52.919Z,-0.70
2019-02-23T23:22:56.310Z,-0.70
2019-02-23T23:27:59.687Z,-0.80
2019-02-23T23:33:03.067Z,-0.80
2019-02-23T23:38:06.459Z,-0.80
2019-02-23T23:43:09.850Z,-0.90
2019-02-23T23:48:13.239Z,-0.90
2019-02-23T23:53:16.644Z,-1.00
2019-02-23T23:58:20.019Z,-1.00
